Darstellungsparameter: Aktuell verwendete Einstellungen:
Skalierung der Graphiken ... ?
xyx+y,   Skalierungsfaktor:      Skalierung: Modus: x, Faktor: 1
Darstellungszeitraum ... ?
Vom - - bis: - -   Zeitraum: 10.07.2020 - 10.07.2020
Min/Max/Avg-Anzeige ... ?
Zeige MMA aktuell
Zeige MMA Monat
Zeige MMA alles
Zeige --A aktuell
Zeige --A Monat
Zeige --A alles
Keine MMA-Anzeige
MMA:
Keine MMA-Graphiken
MMA-Basis: 10.07.2020 - 10.07.2020
Quicknavigation für Darstellung... ?
Tage:      1T, 2T, 3T, 5T -1T -2T -3T -5T +1T +2T +3T +5T
Wochen: 1W, 2W, 3W -1W -2W -3W +1W +2W +3W
Monate: 1M, 3M, 6M -1M -3M -6M +1M +3M +6M
Jahre:    1J, 3J, 5J, 10J -1J -3J -5J -10J +1J +3J +5J +10J
Nutze für die Darstellung ... ?
Originaldaten oder Mittelwerte auf ...
Stundenbasis Tagesbasis Wochenbasis
Monatsbasis Jahresbasis      Datenbasis: Original-Daten
Darstellen als:
Statistik (Auto) Statistik J:M      Darstellung:
Zur Graphik,    zurück zur Übersicht aller Sensoren.
 
Tabellarische Datenbersicht: ?
 
Sensor: Nr:Datum:Temp:Feuchte:Taupunkt:
Aussen-T/F 1 10-07-2020 02:00:00 17.3 C 86 % 14.94 C
2 10-07-2020 02:05:00 17.2 C 87 % 15.02 C
3 10-07-2020 02:10:00 17.2 C 87 % 15.02 C
4 10-07-2020 02:15:00 17.1 C 88 % 15.1 C
5 10-07-2020 02:20:00 17.1 C 88 % 15.1 C
6 10-07-2020 02:25:00 17 C 88 % 15 C
7 10-07-2020 02:30:00 16.9 C 88 % 14.9 C
8 10-07-2020 02:35:00 16.9 C 88 % 14.9 C
9 10-07-2020 02:40:00 16.8 C 88 % 14.8 C
10 10-07-2020 02:45:00 16.7 C 88 % 14.7 C
11 10-07-2020 02:50:00 16.7 C 89 % 14.88 C
12 10-07-2020 02:55:00 16.7 C 89 % 14.88 C
13 10-07-2020 03:00:00 16.7 C 89 % 14.88 C
14 10-07-2020 03:05:00 16.7 C 89 % 14.88 C
15 10-07-2020 03:10:00 16.6 C 89 % 14.78 C
16 10-07-2020 03:15:00 16.6 C 89 % 14.78 C
17 10-07-2020 03:20:00 16.7 C 89 % 14.88 C
18 10-07-2020 03:25:00 16.7 C 89 % 14.88 C
19 10-07-2020 03:30:00 16.6 C 89 % 14.78 C
20 10-07-2020 03:35:00 16.6 C 89 % 14.78 C
21 10-07-2020 03:40:00 16.6 C 89 % 14.78 C
22 10-07-2020 03:45:00 16.6 C 89 % 14.78 C
23 10-07-2020 03:50:00 16.5 C 89 % 14.68 C
24 10-07-2020 03:55:00 16.5 C 89 % 14.68 C
25 10-07-2020 04:00:00 16.4 C 89 % 14.58 C
Sensor: Nr:Datum:Temp:Feuchte:Taupunkt:
Aussen-T/F 26 10-07-2020 04:05:00 16.4 C 89 % 14.58 C
27 10-07-2020 04:10:00 16.3 C 89 % 14.48 C
28 10-07-2020 04:15:00 16.3 C 90 % 14.66 C
29 10-07-2020 04:20:00 16.2 C 90 % 14.56 C
30 10-07-2020 04:25:00 16.1 C 90 % 14.46 C
31 10-07-2020 04:30:00 16.1 C 90 % 14.46 C
32 10-07-2020 04:35:00 16.1 C 90 % 14.46 C
33 10-07-2020 04:40:00 16.1 C 91 % 14.63 C
34 10-07-2020 04:45:00 16.1 C 91 % 14.63 C
35 10-07-2020 04:50:00 16.1 C 91 % 14.63 C
36 10-07-2020 04:55:00 16.2 C 91 % 14.73 C
37 10-07-2020 05:00:00 16.2 C 91 % 14.73 C
38 10-07-2020 05:05:00 16.2 C 91 % 14.73 C
39 10-07-2020 05:10:00 16.1 C 91 % 14.63 C
40 10-07-2020 05:15:00 16.1 C 91 % 14.63 C
41 10-07-2020 05:20:00 16.1 C 91 % 14.63 C
42 10-07-2020 05:25:00 16.1 C 91 % 14.63 C
43 10-07-2020 05:30:00 16.1 C 91 % 14.63 C
44 10-07-2020 05:35:00 16.1 C 91 % 14.63 C
45 10-07-2020 05:40:00 16.2 C 90 % 14.56 C
46 10-07-2020 05:45:00 16.2 C 90 % 14.56 C
47 10-07-2020 05:50:00 16.2 C 90 % 14.56 C
48 10-07-2020 05:55:00 16.2 C 90 % 14.56 C
49 10-07-2020 06:00:00 16.2 C 90 % 14.56 C
50 10-07-2020 06:05:00 16.2 C 90 % 14.56 C
Sensor: Nr:Datum:Temp:Feuchte:Taupunkt:
Aussen-T/F 51 10-07-2020 06:10:00 16.2 C 90 % 14.56 C
52 10-07-2020 06:15:00 16.2 C 90 % 14.56 C
53 10-07-2020 06:20:00 16.2 C 90 % 14.56 C
54 10-07-2020 06:25:00 16.3 C 91 % 14.83 C
55 10-07-2020 06:30:00 16.3 C 91 % 14.83 C
56 10-07-2020 06:35:00 16.4 C 91 % 14.93 C
57 10-07-2020 06:40:00 16.4 C 91 % 14.93 C
58 10-07-2020 06:45:00 16.5 C 90 % 14.85 C
59 10-07-2020 06:50:00 16.5 C 90 % 14.85 C
60 10-07-2020 06:55:00 16.6 C 89 % 14.78 C
61 10-07-2020 07:00:00 16.7 C 89 % 14.88 C
62 10-07-2020 07:05:00 16.7 C 89 % 14.88 C
63 10-07-2020 07:10:00 16.8 C 89 % 14.98 C
64 10-07-2020 07:15:00 17 C 88 % 15 C
65 10-07-2020 07:20:00 17.2 C 88 % 15.2 C
66 10-07-2020 07:25:00 17.3 C 88 % 15.29 C
67 10-07-2020 07:30:00 17.4 C 87 % 15.21 C
68 10-07-2020 07:35:00 17.6 C 87 % 15.41 C
69 10-07-2020 07:40:00 17.7 C 86 % 15.33 C
70 10-07-2020 07:45:00 17.9 C 86 % 15.53 C
71 10-07-2020 07:50:00 18.1 C 85 % 15.54 C
72 10-07-2020 07:55:00 18.2 C 85 % 15.64 C
73 10-07-2020 08:00:00 18.4 C 85 % 15.83 C
74 10-07-2020 08:05:00 18.5 C 84 % 15.75 C
75 10-07-2020 08:10:00 18.6 C 84 % 15.84 C
Sensor: Nr:Datum:Temp:Feuchte:Taupunkt:
Aussen-T/F 76 10-07-2020 08:15:00 18.7 C 84 % 15.94 C
77 10-07-2020 08:20:00 18.8 C 83 % 15.85 C
78 10-07-2020 08:25:00 19 C 84 % 16.24 C
79 10-07-2020 08:30:00 19.2 C 82 % 16.05 C
80 10-07-2020 08:35:00 19.4 C 82 % 16.25 C
81 10-07-2020 08:40:00 19.6 C 80 % 16.06 C
82 10-07-2020 08:45:00 19.8 C 78 % 15.85 C
83 10-07-2020 08:50:00 20.1 C 77 % 15.94 C
84 10-07-2020 08:55:00 20.2 C 77 % 16.04 C
85 10-07-2020 09:00:00 20.3 C 76 % 15.93 C
86 10-07-2020 09:05:00 20.3 C 76 % 15.93 C
87 10-07-2020 09:10:00 20.3 C 75 % 15.72 C
88 10-07-2020 09:15:00 20.3 C 75 % 15.72 C
89 10-07-2020 09:20:00 20.3 C 76 % 15.93 C
90 10-07-2020 09:25:00 20.3 C 76 % 15.93 C
91 10-07-2020 09:30:00 20.3 C 76 % 15.93 C
92 10-07-2020 09:35:00 20.2 C 77 % 16.04 C
93 10-07-2020 09:40:00 20.2 C 77 % 16.04 C
94 10-07-2020 09:45:00 20.2 C 76 % 15.83 C
95 10-07-2020 09:50:00 20.2 C 76 % 15.83 C
96 10-07-2020 09:55:00 20.3 C 75 % 15.72 C
97 10-07-2020 10:00:00 20.4 C 75 % 15.82 C
98 10-07-2020 10:05:00 20.4 C 75 % 15.82 C
99 10-07-2020 10:10:00 20.4 C 75 % 15.82 C
100 10-07-2020 10:15:00 20.4 C 73 % 15.4 C
Sensor: Nr:Datum:Temp:Feuchte:Taupunkt:
Aussen-T/F 101 10-07-2020 10:20:00 20.6 C 72 % 15.38 C
102 10-07-2020 10:25:00 20.7 C 71 % 15.25 C
103 10-07-2020 10:30:00 20.8 C 71 % 15.35 C
104 10-07-2020 10:35:00 20.8 C 69 % 14.91 C
105 10-07-2020 10:40:00 20.8 C 71 % 15.35 C
106 10-07-2020 10:45:00 20.9 C 71 % 15.45 C
107 10-07-2020 10:50:00 21 C 71 % 15.54 C
108 10-07-2020 10:55:00 21.1 C 71 % 15.64 C
109 10-07-2020 11:00:00 21.2 C 71 % 15.73 C
110 10-07-2020 11:05:00 21.2 C 69 % 15.29 C
111 10-07-2020 11:10:00 21.3 C 69 % 15.38 C
112 10-07-2020 11:15:00 21.3 C 68 % 15.16 C
113 10-07-2020 11:20:00 21.2 C 69 % 15.29 C
114 10-07-2020 11:25:00 21.3 C 69 % 15.38 C
115 10-07-2020 11:30:00 21.3 C 68 % 15.16 C
116 10-07-2020 11:35:00 21.4 C 69 % 15.48 C
117 10-07-2020 11:40:00 21.6 C 66 % 14.98 C
118 10-07-2020 11:45:00 21.6 C 66 % 14.98 C
119 10-07-2020 11:50:00 21.8 C 66 % 15.17 C
120 10-07-2020 11:55:00 21.9 C 64 % 14.78 C
121 10-07-2020 12:00:00 21.9 C 64 % 14.78 C
122 10-07-2020 12:05:00 22.1 C 65 % 15.21 C
123 10-07-2020 12:10:00 22.2 C 66 % 15.55 C
124 10-07-2020 12:15:00 22.1 C 66 % 15.45 C
125 10-07-2020 12:20:00 21.9 C 66 % 15.26 C
Sensor: Nr:Datum:Temp:Feuchte:Taupunkt:
Aussen-T/F 126 10-07-2020 12:25:00 21.9 C 65 % 15.02 C
127 10-07-2020 12:30:00 21.9 C 65 % 15.02 C
128 10-07-2020 12:35:00 21.9 C 65 % 15.02 C
129 10-07-2020 12:40:00 21.9 C 64 % 14.78 C
130 10-07-2020 12:45:00 22 C 64 % 14.88 C
131 10-07-2020 12:50:00 22.1 C 64 % 14.97 C
132 10-07-2020 12:55:00 21.9 C 64 % 14.78 C
133 10-07-2020 13:00:00 21.8 C 65 % 14.93 C
134 10-07-2020 13:05:00 21.8 C 64 % 14.69 C
135 10-07-2020 13:10:00 21.9 C 64 % 14.78 C
136 10-07-2020 13:15:00 21.9 C 64 % 14.78 C
137 10-07-2020 13:20:00 21.6 C 65 % 14.74 C
138 10-07-2020 13:25:00 21.2 C 64 % 14.12 C
139 10-07-2020 13:30:00 20.9 C 67 % 14.55 C
140 10-07-2020 13:35:00 20.8 C 66 % 14.22 C
141 10-07-2020 13:40:00 20.8 C 66 % 14.22 C
142 10-07-2020 13:45:00 20.8 C 66 % 14.22 C
143 10-07-2020 13:50:00 20.8 C 67 % 14.45 C
144 10-07-2020 13:55:00 20.8 C 66 % 14.22 C
145 10-07-2020 14:00:00 20.8 C 67 % 14.45 C
146 10-07-2020 14:05:00 20.9 C 69 % 15 C
147 10-07-2020 14:10:00 21.2 C 66 % 14.6 C
148 10-07-2020 14:15:00 21.2 C 66 % 14.6 C
149 10-07-2020 14:20:00 21.2 C 66 % 14.6 C
150 10-07-2020 14:25:00 21.1 C 65 % 14.27 C
Sensor: Nr:Datum:Temp:Feuchte:Taupunkt:
Aussen-T/F 151 10-07-2020 14:30:00 20.9 C 66 % 14.31 C
152 10-07-2020 14:35:00 20.9 C 66 % 14.31 C
153 10-07-2020 14:40:00 20.9 C 66 % 14.31 C
154 10-07-2020 14:45:00 20.8 C 65 % 13.98 C
155 10-07-2020 14:50:00 20.8 C 66 % 14.22 C
156 10-07-2020 14:55:00 20.8 C 66 % 14.22 C
157 10-07-2020 15:00:00 20.8 C 66 % 14.22 C
158 10-07-2020 15:05:00 20.7 C 67 % 14.36 C
159 10-07-2020 15:10:00 20.7 C 69 % 14.81 C
160 10-07-2020 15:15:00 20.2 C 73 % 15.21 C
161 10-07-2020 15:20:00 19.5 C 78 % 15.56 C
162 10-07-2020 15:25:00 19 C 81 % 15.67 C
163 10-07-2020 15:30:00 18.7 C 83 % 15.75 C
164 10-07-2020 15:35:00 18.4 C 86 % 16.02 C
165 10-07-2020 15:40:00 18.4 C 87 % 16.2 C
166 10-07-2020 15:45:00 18.4 C 89 % 16.55 C
167 10-07-2020 15:50:00 18.4 C 87 % 16.2 C
168 10-07-2020 15:55:00 18.4 C 88 % 16.38 C
169 10-07-2020 16:00:00 18.4 C 88 % 16.38 C
170 10-07-2020 16:05:00 18.4 C 88 % 16.38 C
171 10-07-2020 16:10:00 18.5 C 89 % 16.65 C
172 10-07-2020 16:15:00 18.6 C 90 % 16.93 C
173 10-07-2020 16:20:00 18.7 C 90 % 17.03 C
174 10-07-2020 16:25:00 18.6 C 90 % 16.93 C
175 10-07-2020 16:30:00 18.5 C 89 % 16.65 C
Sensor: Nr:Datum:Temp:Feuchte:Taupunkt:
Aussen-T/F 176 10-07-2020 16:35:00 18.3 C 89 % 16.46 C
177 10-07-2020 16:40:00 18.2 C 89 % 16.36 C
178 10-07-2020 16:45:00 18.1 C 89 % 16.26 C
179 10-07-2020 16:50:00 17.9 C 89 % 16.06 C
180 10-07-2020 16:55:00 17.8 C 90 % 16.14 C
181 10-07-2020 17:00:00 17.7 C 90 % 16.04 C
182 10-07-2020 17:05:00 17.6 C 91 % 16.11 C
183 10-07-2020 17:10:00 17.6 C 91 % 16.11 C
184 10-07-2020 17:15:00 17.7 C 92 % 16.38 C
185 10-07-2020 17:20:00 17.8 C 92 % 16.48 C
186 10-07-2020 17:25:00 17.9 C 92 % 16.58 C
187 10-07-2020 17:30:00 18.2 C 93 % 17.05 C
188 10-07-2020 17:35:00 18.4 C 93 % 17.25 C
189 10-07-2020 17:40:00 18.8 C 94 % 17.81 C
190 10-07-2020 17:45:00 18.9 C 93 % 17.74 C
191 10-07-2020 17:50:00 19.2 C 92 % 17.87 C
192 10-07-2020 17:55:00 19.3 C 88 % 17.26 C
193 10-07-2020 18:00:00 19.7 C 80 % 16.15 C
194 10-07-2020 18:05:00 20.1 C 75 % 15.53 C
195 10-07-2020 18:10:00 20 C 71 % 14.58 C
196 10-07-2020 18:15:00 19.3 C 71 % 13.91 C
197 10-07-2020 18:20:00 18.8 C 73 % 13.86 C
198 10-07-2020 18:25:00 18.6 C 72 % 13.46 C
199 10-07-2020 18:30:00 18.5 C 73 % 13.57 C
200 10-07-2020 18:35:00 18.6 C 74 % 13.88 C
Sensor: Nr:Datum:Temp:Feuchte:Taupunkt:
Aussen-T/F 201 10-07-2020 18:40:00 18.8 C 74 % 14.07 C
202 10-07-2020 18:45:00 19.3 C 73 % 14.34 C
203 10-07-2020 18:50:00 19.8 C 71 % 14.39 C
204 10-07-2020 18:55:00 20.1 C 70 % 14.46 C
205 10-07-2020 19:00:00 20.4 C 68 % 14.3 C
206 10-07-2020 19:05:00 20.3 C 67 % 13.97 C
207 10-07-2020 19:10:00 19.9 C 68 % 13.82 C
208 10-07-2020 19:15:00 20.1 C 68 % 14.01 C
209 10-07-2020 19:20:00 20.1 C 66 % 13.55 C
210 10-07-2020 19:25:00 20.1 C 67 % 13.78 C
211 10-07-2020 19:30:00 19.8 C 67 % 13.5 C
212 10-07-2020 19:35:00 19.4 C 69 % 13.57 C
213 10-07-2020 19:40:00 19.2 C 71 % 13.82 C
214 10-07-2020 19:45:00 19 C 71 % 13.63 C
215 10-07-2020 19:50:00 18.8 C 71 % 13.43 C
216 10-07-2020 19:55:00 18.8 C 72 % 13.65 C
217 10-07-2020 20:00:00 18.8 C 72 % 13.65 C
218 10-07-2020 20:05:00 19 C 70 % 13.41 C
219 10-07-2020 20:10:00 19.1 C 70 % 13.5 C
220 10-07-2020 20:15:00 19 C 71 % 13.63 C
221 10-07-2020 20:20:00 18.8 C 72 % 13.65 C
222 10-07-2020 20:25:00 18.6 C 71 % 13.24 C
223 10-07-2020 20:30:00 18.4 C 72 % 13.26 C
224 10-07-2020 20:35:00 18.3 C 73 % 13.38 C
225 10-07-2020 20:40:00 18.3 C 71 % 12.95 C
Sensor: Nr:Datum:Temp:Feuchte:Taupunkt:
Aussen-T/F 226 10-07-2020 20:45:00 18.3 C 71 % 12.95 C
227 10-07-2020 20:50:00 18.2 C 70 % 12.64 C
228 10-07-2020 20:55:00 18.2 C 70 % 12.64 C
229 10-07-2020 21:00:00 18.1 C 70 % 12.55 C
230 10-07-2020 21:05:00 17.9 C 71 % 12.57 C
231 10-07-2020 21:10:00 17.9 C 71 % 12.57 C
232 10-07-2020 21:15:00 17.8 C 70 % 12.26 C
233 10-07-2020 21:20:00 17.8 C 71 % 12.47 C
234 10-07-2020 21:25:00 17.8 C 71 % 12.47 C
235 10-07-2020 21:30:00 17.7 C 71 % 12.38 C
236 10-07-2020 21:35:00 17.7 C 72 % 12.59 C
237 10-07-2020 21:40:00 17.6 C 71 % 12.28 C
238 10-07-2020 21:45:00 17.6 C 71 % 12.28 C
239 10-07-2020 21:50:00 17.6 C 72 % 12.5 C
240 10-07-2020 21:55:00 17.5 C 72 % 12.4 C
241 10-07-2020 22:00:00 17.4 C 73 % 12.51 C
242 10-07-2020 22:05:00 17.4 C 73 % 12.51 C
243 10-07-2020 22:10:00 17.3 C 72 % 12.21 C
244 10-07-2020 22:15:00 17.3 C 72 % 12.21 C
245 10-07-2020 22:20:00 17.2 C 72 % 12.11 C
246 10-07-2020 22:25:00 17.2 C 72 % 12.11 C
247 10-07-2020 22:30:00 17.2 C 72 % 12.11 C
248 10-07-2020 22:35:00 17.1 C 72 % 12.02 C
249 10-07-2020 22:40:00 17.1 C 72 % 12.02 C
250 10-07-2020 22:45:00 17.1 C 72 % 12.02 C
Sensor: Nr:Datum:Temp:Feuchte:Taupunkt:
Aussen-T/F 251 10-07-2020 22:50:00 17 C 74 % 12.34 C
252 10-07-2020 22:55:00 16.9 C 73 % 12.03 C
253 10-07-2020 23:00:00 16.9 C 74 % 12.24 C
254 10-07-2020 23:05:00 16.8 C 74 % 12.14 C
255 10-07-2020 23:10:00 16.8 C 73 % 11.94 C
256 10-07-2020 23:15:00 16.7 C 73 % 11.84 C
257 10-07-2020 23:20:00 16.7 C 74 % 12.05 C
258 10-07-2020 23:25:00 16.7 C 73 % 11.84 C
259 10-07-2020 23:30:00 16.6 C 73 % 11.74 C
260 10-07-2020 23:35:00 16.6 C 73 % 11.74 C
261 10-07-2020 23:40:00 16.6 C 74 % 11.95 C
262 10-07-2020 23:45:00 16.5 C 74 % 11.85 C
263 10-07-2020 23:50:00 16.4 C 75 % 11.96 C
264 10-07-2020 23:55:00 16.3 C 75 % 11.86 C

Legende:
   Min
   Max


Maximal/Minimal-Werte vom 10.07.2020 - 10.07.2020

Sensor Min Max Avg
Temp
(Aussen-T/F)
16.1 °C
10-07-2020  04:25:00
22.2 °C
10-07-2020  12:10:00
18.66 °C
Feuchte
(Aussen-T/F)
64 %
10-07-2020  11:55:00
94 %
10-07-2020  17:40:00
78.16 %
Taupunkt
(Aussen-T/F)
11.74 C
10-07-2020  23:30:00
17.87 C
10-07-2020  17:50:00
14.6 C

Die Daten stammen von einer Davis Vantage Pro 2 Wetter-Station und werden unter Linux mit der Software wview2wettercgi und aufbereitet. Alle Angaben erfolgen ohne Gewähr für ihre Vollständigkeit oder Richtigkeit.
Kontakt: Rainer Krienke krienke@uni-koblenz.de . Meine Webseiten an der Uni Koblenz oder privat.
Version: $Revision: 0.78 $